Time;durP1;ratioP1;P1;durP2;ratioP2;P2;SDS_P1;SDS_P2;PMS_P1;PMS_P2;Temp;Humidity;BMP_temperature;BMP_pressure;BME280_temperature;BME280_humidity;BME280_pressure;Samples;Min_cycle;Max_cycle;Signal;HPM_P1;HPM_P2
2022/06/27 00:00:22;;;;;;;20.27;18.27;;;;;;;19.37;nan;99121.59;2100621;28;20472;-78
2022/06/27 00:01:24;;;;;;;20.33;18.67;;;;;;;19.37;nan;99117.00;2091286;28;20496;-78
2022/06/27 00:02:25;;;;;;;19.27;17.67;;;;;;;19.35;nan;99118.47;2091188;28;20441;-78
2022/06/27 00:03:28;;;;;;;20.03;18.23;;;;;;;19.33;nan;99124.25;2091353;28;20436;-77
2022/06/27 00:04:30;;;;;;;20.43;18.67;;;;;;;19.32;nan;99117.28;2091452;28;20282;-77
2022/06/27 00:05:32;;;;;;;19.07;17.67;;;;;;;19.31;nan;99123.03;2099891;28;20468;-78
2022/06/27 00:06:35;;;;;;;20.23;18.43;;;;;;;19.30;nan;99124.97;2090356;28;21066;-78
2022/06/27 00:07:37;;;;;;;19.67;18.07;;;;;;;19.29;nan;99125.31;2090884;28;20600;-78
2022/06/27 00:08:38;;;;;;;19.50;17.93;;;;;;;19.27;nan;99122.16;2091465;28;20904;-78
2022/06/27 00:09:39;;;;;;;19.43;17.83;;;;;;;19.25;nan;99119.81;2091405;28;20860;-78
2022/06/27 00:10:40;;;;;;;21.03;19.03;;;;;;;19.24;nan;99123.66;2091647;28;20653;-78
2022/06/27 00:11:42;;;;;;;20.00;18.40;;;;;;;19.22;nan;99115.13;2090596;28;20448;-77
2022/06/27 00:12:43;;;;;;;20.10;18.40;;;;;;;19.18;nan;99117.72;2090901;28;20433;-78
2022/06/27 00:13:47;;;;;;;20.20;18.50;;;;;;;19.18;nan;99119.66;2091282;28;20425;-77
2022/06/27 00:14:48;;;;;;;20.03;18.33;;;;;;;19.17;nan;99123.50;2099545;28;20498;-78
2022/06/27 00:15:51;;;;;;;21.23;19.33;;;;;;;19.13;nan;99120.72;2092456;28;20433;-78
2022/06/27 00:16:54;;;;;;;20.03;18.43;;;;;;;19.13;nan;99120.72;2092846;28;20440;-77
2022/06/27 00:17:57;;;;;;;20.97;18.83;;;;;;;19.10;nan;99118.69;2095359;28;20418;-78
2022/06/27 00:19:02;;;;;;;20.20;18.43;;;;;;;19.11;nan;99122.19;2100768;28;20479;-78
2022/06/27 00:20:04;;;;;;;20.37;18.67;;;;;;;19.08;nan;99126.38;2091345;28;20467;-78
2022/06/27 00:21:05;;;;;;;20.33;18.70;;;;;;;19.05;nan;99121.69;2082070;28;20446;-77
2022/06/27 00:22:07;;;;;;;21.13;19.10;;;;;;;19.04;nan;99120.13;2082278;28;20473;-77
2022/06/27 00:23:08;;;;;;;20.60;18.97;;;;;;;19.03;nan;99129.38;2082341;28;20207;-78
2022/06/27 00:24:11;;;;;;;20.47;18.67;;;;;;;19.00;nan;99124.63;2082284;28;20537;-78
2022/06/27 00:25:12;;;;;;;20.13;18.33;;;;;;;19.02;nan;99127.78;2082497;28;20565;-78
2022/06/27 00:26:13;;;;;;;21.33;19.30;;;;;;;18.99;nan;99125.00;2082273;28;20470;-77
2022/06/27 00:27:14;;;;;;;20.43;18.83;;;;;;;18.96;nan;99123.78;2082659;28;20195;-78
2022/06/27 00:28:17;;;;;;;19.90;18.37;;;;;;;18.98;nan;99124.22;2083348;28;20587;-78
2022/06/27 00:29:17;;;;;;;20.30;18.67;;;;;;;18.96;nan;99123.78;2082815;28;20489;-77
2022/06/27 00:30:19;;;;;;;20.83;18.90;;;;;;;18.93;nan;99121.75;2091367;28;20435;-77
2022/06/27 00:31:21;;;;;;;20.63;18.80;;;;;;;18.93;nan;99125.25;2091634;28;20218;-77
2022/06/27 00:32:24;;;;;;;20.57;18.97;;;;;;;18.92;nan;99123.69;2099079;28;20467;-78
2022/06/27 00:33:27;;;;;;;20.80;18.97;;;;;;;18.91;nan;99129.44;2098314;28;20468;-77
2022/06/27 00:34:32;;;;;;;21.37;19.30;;;;;;;18.91;nan;99124.81;2090641;28;20493;-77
2022/06/27 00:35:32;;;;;;;20.77;18.87;;;;;;;18.91;nan;99124.81;2090696;28;20237;-78
2022/06/27 00:36:34;;;;;;;22.77;19.63;;;;;;;18.88;nan;99130.16;2090489;28;20441;-77
2022/06/27 00:37:36;;;;;;;21.20;19.40;;;;;;;18.88;nan;99130.94;2091160;28;20274;-78
2022/06/27 00:38:40;;;;;;;21.13;19.10;;;;;;;18.85;nan;99117.31;2091334;28;20410;-77
2022/06/27 00:39:41;;;;;;;20.13;18.47;;;;;;;18.84;nan;99126.56;2090194;28;20449;-78
2022/06/27 00:40:43;;;;;;;20.10;18.67;;;;;;;18.83;nan;99116.88;2082531;28;20460;-77
2022/06/27 00:41:44;;;;;;;20.70;19.10;;;;;;;18.79;nan;99121.44;2090783;28;20266;-77
2022/06/27 00:42:46;;;;;;;21.70;19.73;;;;;;;18.78;nan;99117.16;2090648;28;20441;-77
2022/06/27 00:43:47;;;;;;;21.20;19.40;;;;;;;18.78;nan;99125.28;2090825;28;20829;-78
2022/06/27 00:44:49;;;;;;;21.90;19.77;;;;;;;18.78;nan;99119.88;2090876;28;20430;-77
2022/06/27 00:45:50;;;;;;;20.90;19.13;;;;;;;18.74;nan;99118.97;2090798;28;20193;-78
2022/06/27 00:46:53;;;;;;;20.57;18.97;;;;;;;18.74;nan;99127.09;2098644;28;20472;-78
2022/06/27 00:47:55;;;;;;;20.80;19.10;;;;;;;18.71;nan;99122.38;2098678;28;20629;-77
2022/06/27 00:48:58;;;;;;;21.17;19.20;;;;;;;18.69;nan;99124.66;2090934;28;20433;-78
2022/06/27 00:49:59;;;;;;;20.90;19.20;;;;;;;18.67;nan;99121.50;2098622;28;20448;-78
2022/06/27 00:51:00;;;;;;;20.37;18.87;;;;;;;18.67;nan;99129.59;2098244;28;20437;-77
2022/06/27 00:52:03;;;;;;;20.77;19.13;;;;;;;18.64;nan;99123.75;2098222;28;20244;-77
2022/06/27 00:53:06;;;;;;;20.90;19.13;;;;;;;18.64;nan;99126.44;2090539;28;20957;-77
2022/06/27 00:54:08;;;;;;;20.10;18.33;;;;;;;18.63;nan;99127.56;2082108;28;20504;-78
2022/06/27 00:55:10;;;;;;;20.53;18.87;;;;;;;18.62;nan;99126.00;2082205;28;20458;-78
2022/06/27 00:56:12;;;;;;;20.87;19.17;;;;;;;18.59;nan;99126.72;2090353;28;20426;-78
2022/06/27 00:57:16;;;;;;;21.57;19.50;;;;;;;18.59;nan;99126.72;2099280;28;20470;-78
2022/06/27 00:58:17;;;;;;;21.43;19.60;;;;;;;18.57;nan;99126.25;2090249;28;20445;-77
2022/06/27 00:59:20;;;;;;;20.83;19.17;;;;;;;18.55;nan;99125.81;2082360;28;20431;-77
2022/06/27 01:00:22;;;;;;;21.00;19.20;;;;;;;18.55;nan;99125.81;2091078;28;20233;-77
2022/06/27 01:01:23;;;;;;;21.50;19.60;;;;;;;18.54;nan;99134.28;2090902;28;20482;-78
2022/06/27 01:02:26;;;;;;;20.57;18.87;;;;;;;18.51;nan;99124.97;2091111;28;20437;-78
2022/06/27 01:03:27;;;;;;;20.87;18.93;;;;;;;18.52;nan;99137.34;2082115;28;20545;-78
2022/06/27 01:04:29;;;;;;;20.60;18.80;;;;;;;18.49;nan;99127.19;2090312;28;20429;-78
2022/06/27 01:05:33;;;;;;;20.43;18.67;;;;;;;18.48;nan;99128.34;2098800;28;20561;-77
2022/06/27 01:06:35;;;;;;;20.07;18.57;;;;;;;18.45;nan;99131.75;2097880;28;20462;-77
2022/06/27 01:07:39;;;;;;;20.90;18.80;;;;;;;18.42;nan;99132.44;2098741;28;20490;-77
2022/06/27 01:08:41;;;;;;;20.47;18.77;;;;;;;18.41;nan;99128.16;2098439;28;20833;-77
2022/06/27 01:09:43;;;;;;;20.53;18.93;;;;;;;18.40;nan;99133.91;2091113;28;20430;-78
2022/06/27 01:10:45;;;;;;;20.10;18.53;;;;;;;18.38;nan;99130.75;2091617;28;20430;-78
2022/06/27 01:11:45;;;;;;;20.97;19.17;;;;;;;18.36;nan;99134.59;2098496;28;20452;-78
2022/06/27 01:12:49;;;;;;;19.93;18.23;;;;;;;18.36;nan;99145.41;2090123;28;20966;-78
2022/06/27 01:13:51;;;;;;;20.20;18.57;;;;;;;18.33;nan;99137.19;2090866;28;20261;-78
2022/06/27 01:14:53;;;;;;;20.67;18.50;;;;;;;18.33;nan;99129.91;2082120;28;20521;-78
2022/06/27 01:15:54;;;;;;;20.93;19.27;;;;;;;18.31;nan;99132.13;2082841;28;20450;-78
2022/06/27 01:16:56;;;;;;;21.23;19.33;;;;;;;18.29;nan;99123.59;2090325;28;20465;-77
2022/06/27 01:17:58;;;;;;;20.00;18.43;;;;;;;18.30;nan;99124.38;2090443;28;20198;-78
2022/06/27 01:19:01;;;;;;;20.63;18.93;;;;;;;18.27;nan;99133.97;2082682;28;20484;-78
2022/06/27 01:20:03;;;;;;;21.13;19.30;;;;;;;18.26;nan;99131.63;2090316;28;20425;-77
2022/06/27 01:21:05;;;;;;;22.20;18.90;;;;;;;18.24;nan;99125.75;2098550;28;20437;-77
2022/06/27 01:22:08;;;;;;;20.23;18.67;;;;;;;18.22;nan;99128.03;2098591;28;20472;-78
2022/06/27 01:23:10;;;;;;;21.13;18.93;;;;;;;18.22;nan;99138.81;2090732;28;20433;-78
2022/06/27 01:24:11;;;;;;;21.20;19.10;;;;;;;18.19;nan;99134.91;2090942;28;20441;-77
2022/06/27 01:25:14;;;;;;;20.33;18.73;;;;;;;18.19;nan;99136.81;2090438;28;20433;-78
2022/06/27 01:26:17;;;;;;;20.63;18.83;;;;;;;18.19;nan;99136.81;2090783;28;20556;-78
2022/06/27 01:27:19;;;;;;;19.30;17.97;;;;;;;18.17;nan;99131.78;2090689;28;20459;-77
2022/06/27 01:28:20;;;;;;;20.13;18.40;;;;;;;18.16;nan;99132.13;2090510;28;20970;-78
2022/06/27 01:29:22;;;;;;;20.40;18.80;;;;;;;18.12;nan;99126.59;2090742;28;20865;-78
2022/06/27 01:30:23;;;;;;;20.77;19.07;;;;;;;18.14;nan;99131.66;2090194;28;20583;-78
2022/06/27 01:31:27;;;;;;;21.10;19.27;;;;;;;18.11;nan;99129.66;2090990;28;20519;-78
2022/06/27 01:32:28;;;;;;;21.13;19.30;;;;;;;18.07;nan;99130.34;2098464;28;20855;-78
2022/06/27 01:33:31;;;;;;;21.37;19.60;;;;;;;18.09;nan;99130.00;2090232;28;20442;-78
2022/06/27 01:34:33;;;;;;;20.87;19.07;;;;;;;18.08;nan;99134.63;2082825;28;20218;-78
2022/06/27 01:35:36;;;;;;;21.83;19.90;;;;;;;18.06;nan;99136.84;2082078;28;20442;-79
2022/06/27 01:36:42;;;;;;;21.33;19.47;;;;;;;18.05;nan;99139.91;2090213;28;20553;-78
2022/06/27 01:37:46;;;;;;;20.70;18.80;;;;;;;18.04;nan;99133.72;2082134;28;20489;-78
2022/06/27 01:38:47;;;;;;;21.77;19.53;;;;;;;18.03;nan;99137.56;2081892;28;20454;-78
2022/06/27 01:39:49;;;;;;;21.50;19.67;;;;;;;18.00;nan;99137.47;2082576;28;20454;-78
2022/06/27 01:40:51;;;;;;;21.17;19.37;;;;;;;17.99;nan;99136.69;2081773;28;20453;-78
2022/06/27 01:41:54;;;;;;;21.47;19.63;;;;;;;17.99;nan;99136.69;2090754;28;20508;-78
2022/06/27 01:42:57;;;;;;;21.87;20.17;;;;;;;17.99;nan;99135.91;2098345;28;20574;-78
2022/06/27 01:43:59;;;;;;;21.40;19.70;;;;;;;17.97;nan;99133.53;2098184;28;20445;-78
2022/06/27 01:45:00;;;;;;;22.50;20.73;;;;;;;17.96;nan;99134.66;2098896;28;20447;-78
2022/06/27 01:46:02;;;;;;;22.37;20.47;;;;;;;17.95;nan;99133.09;2098126;28;20974;-78
2022/06/27 01:47:04;;;;;;;22.07;20.03;;;;;;;17.94;nan;99131.50;2090263;28;20195;-78
2022/06/27 01:48:09;;;;;;;21.97;20.27;;;;;;;17.92;nan;99133.78;2090201;28;20524;-78
2022/06/27 01:49:12;;;;;;;21.80;19.97;;;;;;;17.92;nan;99133.00;2089925;28;20821;-78
2022/06/27 01:50:16;;;;;;;20.90;19.23;;;;;;;17.92;nan;99130.28;2090561;28;20952;-77
2022/06/27 01:51:21;;;;;;;21.80;19.57;;;;;;;17.89;nan;99125.56;2097578;28;20468;-77
2022/06/27 01:52:23;;;;;;;21.87;19.83;;;;;;;17.87;nan;99125.13;2098310;28;20436;-78
2022/06/27 01:53:26;;;;;;;21.13;19.33;;;;;;;17.86;nan;99132.44;2098179;28;20252;-78
2022/06/27 01:54:28;;;;;;;21.50;19.37;;;;;;;17.84;nan;99120.41;2097650;28;20911;-78
2022/06/27 01:55:30;;;;;;;20.67;19.20;;;;;;;17.83;nan;99122.34;2098825;28;20514;-78
2022/06/27 01:56:33;;;;;;;21.70;19.90;;;;;;;17.82;nan;99119.97;2098124;28;20477;-78
2022/06/27 01:57:36;;;;;;;21.37;19.50;;;;;;;17.80;nan;99123.00;2090582;28;20508;-77
2022/06/27 01:58:37;;;;;;;20.90;19.27;;;;;;;17.78;nan;99122.56;2090267;28;20509;-78
2022/06/27 01:59:40;;;;;;;20.73;19.03;;;;;;;17.79;nan;99124.13;2089855;28;20473;-78
2022/06/27 02:00:42;;;;;;;22.07;20.37;;;;;;;17.77;nan;99123.69;2090826;28;20468;-77
2022/06/27 02:01:46;;;;;;;20.90;19.40;;;;;;;17.75;nan;99125.97;2089918;28;20483;-78
2022/06/27 02:02:46;;;;;;;21.73;19.63;;;;;;;17.73;nan;99125.53;2090751;28;20773;-77
2022/06/27 02:03:48;;;;;;;21.57;19.70;;;;;;;17.72;nan;99122.03;2090950;28;20541;-78
2022/06/27 02:04:52;;;;;;;20.60;19.00;;;;;;;17.73;nan;99122.81;2089687;28;20203;-77
2022/06/27 02:05:53;;;;;;;22.20;20.30;;;;;;;17.71;nan;99119.66;2090032;28;20438;-77
2022/06/27 02:06:58;;;;;;;21.10;19.50;;;;;;;17.69;nan;99119.19;2089828;28;20829;-78
2022/06/27 02:08:05;;;;;;;21.47;19.40;;;;;;;17.69;nan;99122.66;2090183;28;20449;-78
2022/06/27 02:09:11;;;;;;;21.73;19.80;;;;;;;17.69;nan;99125.38;2089913;28;20464;-78
2022/06/27 02:10:14;;;;;;;21.87;19.73;;;;;;;17.69;nan;99129.97;2082276;28;20431;-78
2022/06/27 02:11:16;;;;;;;21.20;19.53;;;;;;;17.67;nan;99124.94;2090666;28;20457;-78
2022/06/27 02:12:22;;;;;;;22.03;19.77;;;;;;;17.67;nan;99132.25;2089887;28;20445;-78
2022/06/27 02:13:24;;;;;;;21.13;19.43;;;;;;;17.62;nan;99122.47;2091297;28;20476;-78
2022/06/27 02:14:25;;;;;;;20.73;19.07;;;;;;;17.63;nan;99128.63;2098148;28;20503;-78
2022/06/27 02:15:31;;;;;;;21.27;19.50;;;;;;;17.63;nan;99131.34;2098163;28;20600;-77
2022/06/27 02:16:34;;;;;;;21.20;19.33;;;;;;;17.62;nan;99130.56;2090553;28;20775;-78
2022/06/27 02:17:36;;;;;;;21.17;19.33;;;;;;;17.60;nan;99135.50;2081833;28;20511;-78
2022/06/27 02:18:41;;;;;;;21.80;19.60;;;;;;;17.59;nan;99138.56;2082643;28;20500;-78
2022/06/27 02:19:43;;;;;;;21.17;19.47;;;;;;;17.57;nan;99138.91;2081817;28;20451;-77
2022/06/27 02:20:44;;;;;;;21.23;19.50;;;;;;;17.56;nan;99136.53;2089765;28;20441;-77
2022/06/27 02:21:47;;;;;;;20.50;19.00;;;;;;;17.54;nan;99139.56;2081839;28;20504;-77
2022/06/27 02:22:49;;;;;;;21.10;19.40;;;;;;;17.52;nan;99137.22;2089941;28;20440;-77
2022/06/27 02:23:55;;;;;;;21.70;19.73;;;;;;;17.51;nan;99140.25;2090425;28;20529;-77
2022/06/27 02:24:59;;;;;;;21.43;19.67;;;;;;;17.48;nan;99139.03;2089898;28;20983;-77
2022/06/27 02:26:01;;;;;;;20.43;18.73;;;;;;;17.45;nan;99139.69;2089927;28;20984;-78
2022/06/27 02:27:02;;;;;;;21.30;19.00;;;;;;;17.46;nan;99143.97;2090578;28;20461;-77
2022/06/27 02:28:04;;;;;;;21.20;19.60;;;;;;;17.45;nan;99136.97;2090501;28;20449;-78
2022/06/27 02:29:07;;;;;;;21.13;19.43;;;;;;;17.42;nan;99134.97;2090665;28;20993;-77
2022/06/27 02:30:12;;;;;;;21.60;19.83;;;;;;;17.44;nan;99143.50;2090380;28;20440;-77
2022/06/27 02:31:14;;;;;;;20.93;19.33;;;;;;;17.43;nan;99136.53;2090654;28;20467;-78
2022/06/27 02:32:16;;;;;;;21.50;19.67;;;;;;;17.41;nan;99130.72;2090404;28;20533;-77
2022/06/27 02:33:17;;;;;;;21.73;19.73;;;;;;;17.41;nan;99133.41;2081835;28;21040;-78
2022/06/27 02:34:19;;;;;;;21.30;19.67;;;;;;;17.40;nan;99136.44;2082459;28;20453;-77
2022/06/27 02:35:20;;;;;;;21.27;19.43;;;;;;;17.39;nan;99140.28;2081490;28;20199;-77
2022/06/27 02:36:26;;;;;;;21.13;19.53;;;;;;;17.39;nan;99135.66;2089002;28;20452;-78
2022/06/27 02:37:28;;;;;;;21.73;19.73;;;;;;;17.36;nan;99132.84;2098486;28;20518;-78
2022/06/27 02:38:31;;;;;;;22.43;20.33;;;;;;;17.37;nan;99143.28;2098110;28;20437;-77
2022/06/27 02:39:34;;;;;;;21.87;19.83;;;;;;;17.34;nan;99133.19;2098039;28;20900;-78
2022/06/27 02:40:37;;;;;;;22.63;20.83;;;;;;;17.36;nan;99143.63;2090167;28;20477;-77
2022/06/27 02:41:39;;;;;;;23.20;20.70;;;;;;;17.33;nan;99139.72;2090083;28;20429;-77
2022/06/27 02:42:42;;;;;;;21.90;20.00;;;;;;;17.31;nan;99139.28;2091338;28;20472;-78
2022/06/27 02:43:46;;;;;;;21.43;19.73;;;;;;;17.30;nan;99143.09;2090780;28;20528;-77
2022/06/27 02:44:51;;;;;;;21.87;20.13;;;;;;;17.31;nan;99146.56;2098551;28;20425;-78
2022/06/27 02:45:53;;;;;;;22.30;20.30;;;;;;;17.28;nan;99139.94;2090012;28;20449;-77
2022/06/27 02:46:55;;;;;;;22.70;20.80;;;;;;;17.28;nan;99150.72;2082370;28;20570;-77
2022/06/27 02:47:57;;;;;;;22.17;20.27;;;;;;;17.27;nan;99141.06;2082780;28;20454;-77
2022/06/27 02:48:59;;;;;;;27.53;20.37;;;;;;;17.28;nan;99148.00;2081862;28;20441;-77
2022/06/27 02:50:03;;;;;;;22.97;20.73;;;;;;;17.24;nan;99139.81;2081743;28;20454;-77
2022/06/27 02:51:13;;;;;;;22.43;20.63;;;;;;;17.24;nan;99137.13;2082090;28;20446;-78
2022/06/27 02:52:18;;;;;;;22.80;20.70;;;;;;;17.23;nan;99137.47;2082545;28;20949;-77
2022/06/27 02:53:33;;;;;;;22.90;20.80;;;;;;;17.24;nan;99139.03;2089854;28;20534;-77
2022/06/27 02:54:53;;;;;;;22.43;20.63;;;;;;;17.23;nan;99135.56;2084222;28;20469;-78
2022/06/27 02:56:02;;;;;;;22.63;20.53;;;;;;;17.23;nan;99134.78;2083533;28;20449;-77
2022/06/27 02:57:11;;;;;;;22.63;20.43;;;;;;;17.25;nan;99135.22;2090119;28;20458;-78
2022/06/27 02:58:21;;;;;;;23.97;21.57;;;;;;;17.24;nan;99125.56;2097777;28;20428;-77
2022/06/27 02:59:24;;;;;;;23.20;21.10;;;;;;;17.26;nan;99139.47;2090059;28;20800;-78
2022/06/27 03:00:27;;;;;;;23.13;21.13;;;;;;;17.25;nan;99135.22;2089773;28;20548;-77
2022/06/27 03:01:30;;;;;;;22.90;20.93;;;;;;;17.27;nan;99129.47;2090555;28;20495;-78
2022/06/27 03:02:31;;;;;;;22.80;20.90;;;;;;;17.28;nan;99139.13;2090837;28;20453;-78
2022/06/27 03:04:00;;;;;;;23.77;21.33;;;;;;;17.26;nan;99134.09;2094586;28;20451;-77
2022/06/27 03:05:04;;;;;;;22.77;20.67;;;;;;;17.29;nan;99138.00;2100048;28;20452;-78
2022/06/27 03:06:10;;;;;;;22.53;20.73;;;;;;;17.31;nan;99138.47;2091497;28;20444;-77
2022/06/27 03:07:12;;;;;;;22.93;20.93;;;;;;;17.31;nan;99143.88;2083809;28;20462;-78
2022/06/27 03:08:14;;;;;;;23.97;21.43;;;;;;;17.28;nan;99134.53;2092058;28;20500;-78
2022/06/27 03:09:14;;;;;;;23.07;21.07;;;;;;;17.29;nan;99138.00;2100663;28;20501;-78
2022/06/27 03:10:17;;;;;;;23.00;21.03;;;;;;;17.28;nan;99137.22;2100070;28;20779;-78
2022/06/27 03:11:24;;;;;;;23.13;21.13;;;;;;;17.30;nan;99140.41;2092084;28;20963;-77
2022/06/27 03:12:26;;;;;;;23.17;20.90;;;;;;;17.30;nan;99143.09;2083711;28;20441;-77
2022/06/27 03:13:29;;;;;;;23.17;21.07;;;;;;;17.32;nan;99148.94;2083643;28;20444;-78
2022/06/27 03:14:34;;;;;;;23.17;20.97;;;;;;;17.31;nan;99139.28;2092799;28;20523;-77
2022/06/27 03:15:34;;;;;;;25.60;21.67;;;;;;;17.31;nan;99144.66;2100478;28;20428;-77
2022/06/27 03:16:36;;;;;;;23.47;21.30;;;;;;;17.32;nan;99143.53;2091975;28;20437;-77
2022/06/27 03:17:37;;;;;;;23.90;21.90;;;;;;;17.32;nan;99146.22;2092719;28;20202;-77
2022/06/27 03:18:58;;;;;;;23.07;20.97;;;;;;;17.35;nan;99150.94;2098147;28;20896;-77
2022/06/27 03:20:17;;;;;;;23.33;21.33;;;;;;;17.35;nan;99147.47;2091717;28;20468;-77
2022/06/27 03:21:48;;;;;;;23.80;21.70;;;;;;;17.35;nan;99145.53;2087205;28;20615;-78
2022/06/27 03:22:49;;;;;;;23.80;21.60;;;;;;;17.37;nan;99151.38;2099274;28;20561;-78
2022/06/27 03:23:51;;;;;;;22.97;21.03;;;;;;;17.38;nan;99152.97;2090617;28;20437;-78
2022/06/27 03:24:54;;;;;;;23.60;21.43;;;;;;;17.40;nan;99148.03;2082896;28;20574;-78
2022/06/27 03:25:57;;;;;;;22.93;20.97;;;;;;;17.40;nan;99156.13;2082974;28;20441;-78
2022/06/27 03:27:05;;;;;;;23.37;21.23;;;;;;;17.40;nan;99148.03;2083821;28;20871;-78
2022/06/27 03:28:09;;;;;;;24.23;21.47;;;;;;;17.42;nan;99155.78;2090791;28;20527;-78
2022/06/27 03:29:11;;;;;;;23.27;21.03;;;;;;;17.42;nan;99151.16;2091262;28;20516;-78
2022/06/27 03:30:14;;;;;;;23.50;20.97;;;;;;;17.41;nan;99154.19;2083402;28;20464;-78
2022/06/27 03:31:16;;;;;;;22.80;20.97;;;;;;;17.45;nan;99152.38;2082992;28;20875;-78
2022/06/27 03:32:22;;;;;;;22.90;20.77;;;;;;;17.45;nan;99155.88;2083700;28;20500;-79
2022/06/27 03:33:32;;;;;;;23.40;21.23;;;;;;;17.46;nan;99164.75;2084356;28;20430;-78
2022/06/27 03:35:05;;;;;;;23.87;21.43;;;;;;;17.47;nan;99163.66;2087282;28;20449;-78
2022/06/27 03:36:08;;;;;;;24.23;21.83;;;;;;;17.49;nan;99164.88;2098600;28;20490;-78
2022/06/27 03:37:09;;;;;;;23.43;21.17;;;;;;;17.49;nan;99167.56;2099229;28;20439;-78
2022/06/27 03:38:12;;;;;;;27.73;21.97;;;;;;;17.50;nan;99158.34;2091381;28;20472;-78
2022/06/27 03:39:15;;;;;;;23.83;21.57;;;;;;;17.52;nan;99166.88;2090856;28;20442;-78
2022/06/27 03:40:19;;;;;;;23.77;21.53;;;;;;;17.53;nan;99165.75;2091726;28;20449;-78
2022/06/27 03:41:27;;;;;;;23.40;21.40;;;;;;;17.56;nan;99160.81;2091255;28;20410;-78
2022/06/27 03:42:31;;;;;;;24.50;21.33;;;;;;;17.53;nan;99156.88;2091079;28;20445;-78
2022/06/27 03:43:33;;;;;;;23.80;21.53;;;;;;;17.55;nan;99160.03;2090768;28;20588;-79
2022/06/27 03:44:33;;;;;;;22.83;21.00;;;;;;;17.56;nan;99164.31;2090861;28;20448;-79
2022/06/27 03:45:35;;;;;;;23.47;21.40;;;;;;;17.58;nan;99163.97;2090849;28;20469;-79
2022/06/27 03:46:37;;;;;;;23.73;21.27;;;;;;;17.58;nan;99174.75;2082721;28;20243;-79
2022/06/27 03:47:48;;;;;;;24.03;21.83;;;;;;;17.60;nan;99167.09;2090770;28;21086;-78
2022/06/27 03:50:35;;;;;;;24.10;21.77;;;;;;;17.63;nan;99167.19;2099225;28;20942;-78
2022/06/27 03:51:38;;;;;;;24.17;21.87;;;;;;;17.63;nan;99161.00;2090469;28;20481;-79
2022/06/27 03:52:44;;;;;;;23.27;20.97;;;;;;;17.65;nan;99166.88;2090797;28;20850;-78
2022/06/27 03:53:48;;;;;;;24.50;21.53;;;;;;;17.68;nan;99160.78;2098004;28;20518;-78
2022/06/27 03:54:49;;;;;;;24.10;21.80;;;;;;;17.71;nan;99168.22;2099046;28;20817;-78
2022/06/27 03:55:52;;;;;;;22.90;20.93;;;;;;;17.73;nan;99166.78;2090755;28;20560;-79
2022/06/27 03:56:55;;;;;;;22.83;20.93;;;;;;;17.73;nan;99171.41;2082550;28;20492;-79
2022/06/27 03:57:59;;;;;;;22.57;20.83;;;;;;;17.77;nan;99173.06;2082827;28;20434;-79
2022/06/27 03:59:02;;;;;;;23.23;21.00;;;;;;;17.78;nan;99174.63;2083868;28;20441;-78
2022/06/27 04:00:08;;;;;;;23.87;21.27;;;;;;;17.79;nan;99176.19;2090713;28;20953;-78
2022/06/27 04:01:15;;;;;;;29.07;21.37;;;;;;;17.82;nan;99176.66;2091693;28;20558;-78
2022/06/27 04:02:18;;;;;;;24.07;21.77;;;;;;;17.88;nan;99183.38;2090687;28;20438;-78
2022/06/27 04:03:40;;;;;;;24.03;21.63;;;;;;;17.89;nan;99184.94;2087795;28;20211;-79
2022/06/27 04:04:48;;;;;;;24.27;21.80;;;;;;;17.90;nan;99179.22;2098990;28;20858;-79
2022/06/27 04:05:48;;;;;;;23.07;20.97;;;;;;;17.91;nan;99180.00;2098966;28;20544;-78
2022/06/27 04:06:51;;;;;;;23.00;20.87;;;;;;;17.92;nan;99176.97;2090699;28;20457;-79
2022/06/27 04:07:52;;;;;;;22.37;20.37;;;;;;;17.92;nan;99179.66;2090656;28;20445;-78
2022/06/27 04:08:55;;;;;;;22.33;20.43;;;;;;;17.94;nan;99188.22;2090675;28;20532;-78
2022/06/27 04:09:56;;;;;;;21.73;19.97;;;;;;;17.95;nan;99184.38;2082780;28;20211;-78
2022/06/27 04:10:58;;;;;;;22.77;20.90;;;;;;;17.95;nan;99184.38;2082490;28;20576;-78
2022/06/27 04:12:05;;;;;;;23.77;21.27;;;;;;;17.98;nan;99181.00;2083886;28;20438;-78
2022/06/27 04:13:26;;;;;;;23.27;20.97;;;;;;;18.00;nan;99181.44;2090748;28;20386;-78
2022/06/27 04:14:52;;;;;;;23.03;21.03;;;;;;;18.05;nan;99173.09;2090956;28;20437;-78
2022/06/27 04:16:13;;;;;;;23.17;21.27;;;;;;;18.15;nan;99187.22;2090595;28;20971;-78
2022/06/27 04:17:53;;;;;;;23.80;21.47;;;;;;;18.16;nan;99178.81;2090420;28;20475;-78
2022/06/27 04:19:14;;;;;;;23.77;21.37;;;;;;;18.20;nan;99179.69;2091272;28;20485;-78
2022/06/27 04:20:45;;;;;;;22.27;20.37;;;;;;;18.22;nan;99185.53;2099003;28;20475;-78
2022/06/27 04:21:46;;;;;;;22.10;20.10;;;;;;;18.24;nan;99186.00;2090328;28;20951;-78
2022/06/27 04:23:09;;;;;;;22.93;21.00;;;;;;;18.27;nan;99189.91;2090727;28;20429;-78
2022/06/27 04:24:43;;;;;;;22.20;20.30;;;;;;;18.30;nan;99189.22;2090364;28;20820;-78
2022/06/27 04:25:47;;;;;;;22.23;20.53;;;;;;;18.33;nan;99186.63;2088370;28;20457;-79
2022/06/27 04:26:49;;;;;;;21.30;19.60;;;;;;;18.38;nan;99188.28;2082243;28;20471;-78
2022/06/27 04:27:50;;;;;;;21.83;20.00;;;;;;;18.38;nan;99180.19;2090531;28;20595;-78
2022/06/27 04:28:55;;;;;;;22.30;20.40;;;;;;;18.40;nan;99182.53;2090482;28;20433;-78
2022/06/27 04:29:56;;;;;;;22.80;20.43;;;;;;;18.48;nan;99189.69;2091013;28;20425;-78
2022/06/27 04:31:00;;;;;;;22.20;20.00;;;;;;;18.45;nan;99185.78;2090682;28;20536;-79
2022/06/27 04:32:00;;;;;;;21.77;20.07;;;;;;;18.45;nan;99191.19;2082413;28;20980;-78
2022/06/27 04:33:03;;;;;;;23.83;21.30;;;;;;;18.44;nan;99188.81;2083160;28;20967;-79
2022/06/27 04:34:04;;;;;;;22.67;20.77;;;;;;;18.45;nan;99187.69;2082304;28;20549;-78
2022/06/27 04:35:12;;;;;;;22.67;20.57;;;;;;;18.45;nan;99187.69;2083346;28;20932;-79
2022/06/27 04:36:15;;;;;;;22.03;20.20;;;;;;;18.50;nan;99193.63;2090017;28;20480;-78
2022/06/27 04:37:19;;;;;;;22.20;19.97;;;;;;;18.52;nan;99191.38;2090440;28;20817;-78
2022/06/27 04:38:43;;;;;;;22.23;20.43;;;;;;;18.54;nan;99186.41;2085902;28;20449;-79
2022/06/27 04:39:45;;;;;;;22.43;20.33;;;;;;;18.54;nan;99191.03;2091185;28;20438;-78
2022/06/27 04:40:59;;;;;;;21.97;19.97;;;;;;;18.57;nan;99201.13;2099271;28;20190;-78
2022/06/27 04:42:02;;;;;;;21.20;19.43;;;;;;;18.57;nan;99196.50;2098472;28;20491;-79
2022/06/27 04:43:07;;;;;;;23.23;20.83;;;;;;;18.60;nan;99195.84;2090540;28;20469;-78
2022/06/27 04:44:12;;;;;;;22.83;20.70;;;;;;;18.63;nan;99197.06;2090433;28;20441;-79
2022/06/27 04:45:16;;;;;;;22.03;20.43;;;;;;;18.63;nan;99192.44;2082560;28;20474;-78
2022/06/27 04:46:24;;;;;;;22.67;20.63;;;;;;;18.65;nan;99197.53;2084101;28;20471;-78
2022/06/27 04:47:58;;;;;;;22.33;20.43;;;;;;;18.70;nan;99196.50;2090036;28;20590;-78
2022/06/27 04:48:59;;;;;;;22.30;20.13;;;;;;;18.72;nan;99196.94;2090887;28;20445;-78
2022/06/27 04:50:03;;;;;;;22.10;20.10;;;;;;;18.73;nan;99190.38;2082152;28;20537;-78
2022/06/27 04:51:06;;;;;;;22.23;20.33;;;;;;;18.74;nan;99187.34;2091074;28;20457;-78
2022/06/27 04:52:08;;;;;;;22.70;20.60;;;;;;;18.79;nan;99191.72;2098630;28;20527;-78
2022/06/27 04:53:10;;;;;;;22.90;21.00;;;;;;;18.80;nan;99185.97;2098316;28;21008;-78
2022/06/27 04:54:12;;;;;;;23.33;21.13;;;;;;;18.82;nan;99189.09;2091355;28;20470;-78
2022/06/27 04:55:13;;;;;;;24.93;20.67;;;;;;;18.85;nan;99199.22;2090526;28;20951;-79
2022/06/27 04:56:16;;;;;;;26.87;20.90;;;;;;;18.87;nan;99191.56;2090804;28;20536;-78
2022/06/27 04:57:18;;;;;;;22.20;20.30;;;;;;;18.89;nan;99191.19;2098223;28;20433;-78
2022/06/27 04:58:23;;;;;;;22.27;20.37;;;;;;;18.91;nan;99188.94;2090692;28;21006;-78
2022/06/27 04:59:28;;;;;;;21.77;19.97;;;;;;;18.92;nan;99193.19;2091021;28;20881;-78
2022/06/27 05:00:42;;;;;;;22.50;20.60;;;;;;;18.97;nan;99189.47;2090347;28;20445;-78
2022/06/27 05:01:50;;;;;;;22.97;20.87;;;;;;;18.99;nan;99196.09;2091202;28;20402;-78
2022/06/27 05:02:52;;;;;;;22.07;20.37;;;;;;;19.03;nan;99198.91;2098410;28;20479;-78
2022/06/27 05:03:55;;;;;;;26.27;21.83;;;;;;;19.05;nan;99200.09;2098519;28;20444;-78
2022/06/27 05:05:03;;;;;;;22.33;20.53;;;;;;;19.08;nan;99195.91;2090813;28;20812;-79